Butler, Oklahoma
Current Conditions -  °F | °C
As of 10:15 AM on Thursday 30 Oct 2014 (Local Time) from KCLK Reporting Station
Clear Clear  
Wind Chill: 55°   Ceiling: Unl
Heat Index: 55°   Visibility: 10mi
Dew Point: 41°   Wind: 0mph
Humidity: 58%   Direction: NA
Pressure: 30.19"   Gusts: NA
Location:  35.64°N, 99.19°W
Report Text: KCLK 301515Z AUTO 00000KT 10SM CLR 13/05 A3019 RMK AO2
Loading
Personal Weather Stations






























Interactive Weather Map New forecast layout! Learn more

10-Day Weather Forecast

Advertisements
Track Severe Weather on mobile